Terminal Aerodrome Forecast
Issued by NWS

Home | Current Version | Previous Version | Text Only | Print | Product List | Glossary On
Versions: 1 2 3 4 5 6 7 8 9 10 11 12 13
000
FTUS41 KLWX 161700
TAFMTN
TAF
KMTN 161720Z 1618/1718 31008G16KT P6SM SCT050
     FM162200 30008KT P6SM SCT050
     FM170000 VRB03KT P6SM SKC
     FM171400 07005KT P6SM FEW050
     FM171700 12005KT P6SM SCT050=

USA.gov is the U.S. government's official web portal to all federal, state and local government web resources and services.